Time;durP1;ratioP1;P1;durP2;ratioP2;P2;SDS_P1;SDS_P2;PMS_P1;PMS_P2;Temp;Humidity;BMP_temperature;BMP_pressure;BME280_temperature;BME280_humidity;BME280_pressure;Samples;Min_cycle;Max_cycle;Signal;HPM_P1;HPM_P2
2023/01/21 00:00:58;;;;;;;59.50;27.60;;;;;;;;;;5073283;28;20044;-73
2023/01/21 00:03:24;;;;;;;58.67;26.55;;;;;;;;;;5082419;28;20063;-74
2023/01/21 00:05:51;;;;;;;65.30;29.98;;;;;;;;;;5077161;28;21263;-74
2023/01/21 00:08:17;;;;;;;60.50;26.92;;;;;;;;;;5091719;28;20047;-74
2023/01/21 00:10:43;;;;;;;62.40;28.85;;;;;;;;;;5088194;28;20093;-73
2023/01/21 00:13:09;;;;;;;62.42;28.10;;;;;;;;;;5090201;28;20062;-73
2023/01/21 00:15:36;;;;;;;64.28;30.83;;;;;;;;;;5054861;28;20083;-74
2023/01/21 00:18:02;;;;;;;64.32;29.25;;;;;;;;;;5080489;28;20563;-74
2023/01/21 00:20:28;;;;;;;58.00;26.73;;;;;;;;;;5055034;28;20044;-73
2023/01/21 00:22:54;;;;;;;68.65;30.77;;;;;;;;;;5077449;28;20040;-74
2023/01/21 00:25:20;;;;;;;65.13;31.48;;;;;;;;;;5074627;28;20059;-75
2023/01/21 00:27:47;;;;;;;70.35;31.55;;;;;;;;;;5062156;28;20044;-75
2023/01/21 00:30:13;;;;;;;71.82;32.58;;;;;;;;;;5092824;28;20052;-76
2023/01/21 00:32:39;;;;;;;68.20;30.23;;;;;;;;;;5075499;28;20036;-75
2023/01/21 00:35:06;;;;;;;73.28;31.83;;;;;;;;;;5054070;28;20040;-75
2023/01/21 00:37:32;;;;;;;67.20;32.42;;;;;;;;;;5086224;28;20040;-75
2023/01/21 00:39:58;;;;;;;74.65;33.45;;;;;;;;;;5083459;28;20048;-75
2023/01/21 00:42:24;;;;;;;70.28;30.48;;;;;;;;;;5090502;28;20047;-75
2023/01/21 00:44:50;;;;;;;71.32;32.30;;;;;;;;;;5069308;28;20052;-75
2023/01/21 00:47:16;;;;;;;72.78;32.47;;;;;;;;;;5082184;28;20052;-75
2023/01/21 00:49:42;;;;;;;72.95;31.50;;;;;;;;;;5088090;28;20043;-75
2023/01/21 00:52:08;;;;;;;75.60;32.60;;;;;;;;;;5085408;28;20086;-75
2023/01/21 00:54:34;;;;;;;71.03;31.65;;;;;;;;;;5073324;28;20044;-75
2023/01/21 00:57:00;;;;;;;71.43;31.75;;;;;;;;;;5071929;28;20082;-75
2023/01/21 00:59:27;;;;;;;74.47;31.42;;;;;;;;;;5080470;28;20482;-75
2023/01/21 01:01:53;;;;;;;67.90;30.15;;;;;;;;;;5081608;28;20091;-75
2023/01/21 01:04:19;;;;;;;70.80;29.27;;;;;;;;;;5078494;28;20041;-75
2023/01/21 01:06:45;;;;;;;68.20;28.75;;;;;;;;;;5079213;28;20044;-75
2023/01/21 01:09:11;;;;;;;69.55;30.08;;;;;;;;;;5059768;28;20056;-75
2023/01/21 01:11:38;;;;;;;69.78;31.73;;;;;;;;;;5084469;28;20072;-75
2023/01/21 01:14:04;;;;;;;70.85;30.08;;;;;;;;;;5084538;28;20074;-75
2023/01/21 01:16:30;;;;;;;54.58;23.70;;;;;;;;;;5068445;28;20490;-75
2023/01/21 01:18:57;;;;;;;68.65;29.02;;;;;;;;;;5090215;28;20056;-75
2023/01/21 01:21:23;;;;;;;69.63;28.98;;;;;;;;;;5082235;28;20037;-75
2023/01/21 01:23:53;;;;;;;81.18;32.08;;;;;;;;;;5082082;28;20051;-75
2023/01/21 01:26:20;;;;;;;83.03;32.58;;;;;;;;;;5090717;28;20119;-74
2023/01/21 01:28:46;;;;;;;82.40;31.85;;;;;;;;;;5074902;28;20048;-76
2023/01/21 01:31:13;;;;;;;77.60;30.15;;;;;;;;;;5057150;28;20063;-75
2023/01/21 01:33:40;;;;;;;67.15;28.55;;;;;;;;;;5083839;28;20117;-75
2023/01/21 01:36:17;;;;;;;87.45;33.03;;;;;;;;;;5083483;28;20101;-75
2023/01/21 01:38:43;;;;;;;64.50;25.88;;;;;;;;;;5079100;28;20434;-75
2023/01/21 01:41:14;;;;;;;68.25;27.63;;;;;;;;;;5040799;28;20166;-75
2023/01/21 01:43:49;;;;;;;60.80;26.98;;;;;;;;;;5088809;28;20043;-75
2023/01/21 01:46:15;;;;;;;68.15;28.27;;;;;;;;;;5077044;28;20493;-75
2023/01/21 01:48:42;;;;;;;69.97;30.17;;;;;;;;;;5079756;28;20398;-75
2023/01/21 01:51:08;;;;;;;85.50;31.35;;;;;;;;;;5083749;28;20047;-75
2023/01/21 01:53:36;;;;;;;76.25;29.60;;;;;;;;;;5090796;28;20044;-75
2023/01/21 01:56:03;;;;;;;85.13;29.77;;;;;;;;;;5084638;28;20626;-75
2023/01/21 01:58:30;;;;;;;83.03;29.20;;;;;;;;;;5080780;28;20526;-75
2023/01/21 02:00:57;;;;;;;74.43;27.20;;;;;;;;;;5076955;28;20073;-75
2023/01/21 02:06:08;;;;;;;82.18;27.13;;;;;;;;;;5076324;28;20080;-75
2023/01/21 02:08:35;;;;;;;88.45;31.42;;;;;;;;;;5074601;28;20036;-75
2023/01/21 02:11:01;;;;;;;140.50;32.45;;;;;;;;;;5079796;28;20535;-75
2023/01/21 02:13:29;;;;;;;86.90;27.75;;;;;;;;;;5080424;28;20147;-75
2023/01/21 02:16:01;;;;;;;146.52;28.98;;;;;;;;;;5087829;28;20040;-75
2023/01/21 02:18:40;;;;;;;184.50;30.48;;;;;;;;;;5079863;28;20040;-75
2023/01/21 02:21:29;;;;;;;466.88;36.85;;;;;;;;;;5073137;28;20049;-75
2023/01/21 02:24:14;;;;;;;301.60;28.20;;;;;;;;;;5062407;28;20390;-75
2023/01/21 02:26:59;;;;;;;354.58;30.45;;;;;;;;;;5073413;28;20506;-75
2023/01/21 02:29:28;;;;;;;289.65;32.20;;;;;;;;;;5073773;28;20048;-75
2023/01/21 02:31:57;;;;;;;293.42;34.30;;;;;;;;;;5079327;28;20440;-75
2023/01/21 02:34:23;;;;;;;389.42;33.33;;;;;;;;;;5074932;28;20048;-75
2023/01/21 02:37:08;;;;;;;374.10;34.20;;;;;;;;;;5075713;28;20047;-75
2023/01/21 02:39:34;;;;;;;357.42;32.90;;;;;;;;;;5092116;28;20116;-75
2023/01/21 02:42:03;;;;;;;309.52;33.17;;;;;;;;;;5081590;28;20470;-75
2023/01/21 02:44:32;;;;;;;247.20;31.00;;;;;;;;;;5088490;28;20036;-75
2023/01/21 02:47:02;;;;;;;289.88;32.00;;;;;;;;;;5082667;28;20051;-75
2023/01/21 02:49:28;;;;;;;382.90;37.67;;;;;;;;;;5071202;28;20044;-75
2023/01/21 02:51:54;;;;;;;250.70;34.22;;;;;;;;;;5065531;28;22061;-75
2023/01/21 02:54:39;;;;;;;282.42;35.53;;;;;;;;;;5064047;28;20055;-75
2023/01/21 02:57:21;;;;;;;148.93;31.65;;;;;;;;;;5080138;28;20044;-75
2023/01/21 02:59:49;;;;;;;171.48;34.10;;;;;;;;;;5063338;28;20047;-75
2023/01/21 03:02:26;;;;;;;139.32;33.33;;;;;;;;;;5084825;28;20059;-75
2023/01/21 03:04:52;;;;;;;206.02;34.47;;;;;;;;;;5079783;28;20075;-75
2023/01/21 03:07:30;;;;;;;129.68;33.63;;;;;;;;;;5089417;28;20046;-75
2023/01/21 03:10:11;;;;;;;163.05;34.38;;;;;;;;;;5090084;28;20047;-75
2023/01/21 03:12:45;;;;;;;143.52;33.80;;;;;;;;;;5084530;28;20044;-75
2023/01/21 03:18:24;;;;;;;130.20;34.47;;;;;;;;;;5081974;28;20040;-75
2023/01/21 03:20:54;;;;;;;92.45;31.95;;;;;;;;;;5080462;28;20056;-75
2023/01/21 03:23:22;;;;;;;91.70;32.10;;;;;;;;;;5074899;28;20102;-75
2023/01/21 03:25:50;;;;;;;92.10;33.10;;;;;;;;;;5071592;28;20517;-75
2023/01/21 03:28:19;;;;;;;90.35;32.88;;;;;;;;;;5054313;28;21272;-75
2023/01/21 03:30:48;;;;;;;95.53;33.47;;;;;;;;;;5076746;28;20040;-75
2023/01/21 03:33:14;;;;;;;91.03;32.28;;;;;;;;;;5081472;28;20089;-75
2023/01/21 03:35:44;;;;;;;96.07;33.90;;;;;;;;;;5090128;28;20051;-75
2023/01/21 03:38:18;;;;;;;91.05;32.65;;;;;;;;;;5085617;28;20040;-75
2023/01/21 03:40:46;;;;;;;84.95;31.73;;;;;;;;;;5081525;28;20044;-75
2023/01/21 03:43:12;;;;;;;83.03;31.02;;;;;;;;;;5078671;28;20044;-75
2023/01/21 03:45:48;;;;;;;83.53;31.23;;;;;;;;;;5070952;28;20483;-75
2023/01/21 03:48:28;;;;;;;82.18;31.00;;;;;;;;;;5084671;28;20505;-75
2023/01/21 03:51:04;;;;;;;87.95;32.03;;;;;;;;;;5089374;28;20047;-75
2023/01/21 03:53:30;;;;;;;79.18;30.23;;;;;;;;;;5062516;28;20044;-75
2023/01/21 03:55:58;;;;;;;90.53;31.65;;;;;;;;;;5082747;28;20047;-75
2023/01/21 03:58:24;;;;;;;80.00;31.60;;;;;;;;;;5083234;28;20067;-75
2023/01/21 04:00:51;;;;;;;85.38;32.35;;;;;;;;;;5080470;28;20044;-75
2023/01/21 04:03:17;;;;;;;79.70;31.88;;;;;;;;;;5060202;28;20053;-75
2023/01/21 04:05:43;;;;;;;76.65;31.35;;;;;;;;;;5086237;28;20047;-75
2023/01/21 04:08:09;;;;;;;74.32;30.45;;;;;;;;;;5082017;28;20045;-75
2023/01/21 04:10:35;;;;;;;80.50;31.35;;;;;;;;;;5089066;28;20091;-74
2023/01/21 04:13:01;;;;;;;76.57;30.65;;;;;;;;;;5078266;28;20052;-75
2023/01/21 04:15:27;;;;;;;90.57;33.72;;;;;;;;;;5090092;28;20036;-75
2023/01/21 04:17:53;;;;;;;78.22;30.95;;;;;;;;;;5088108;28;20047;-75
2023/01/21 04:20:19;;;;;;;87.60;32.58;;;;;;;;;;5089068;28;20460;-75
2023/01/21 04:22:45;;;;;;;92.60;32.55;;;;;;;;;;5085534;28;20498;-75
2023/01/21 04:25:11;;;;;;;82.30;31.77;;;;;;;;;;5079020;28;20082;-75
2023/01/21 04:27:37;;;;;;;89.55;32.63;;;;;;;;;;5079783;28;20047;-74
2023/01/21 04:30:03;;;;;;;68.03;28.00;;;;;;;;;;5053573;28;20495;-75
2023/01/21 04:32:29;;;;;;;78.07;29.92;;;;;;;;;;5077153;28;20090;-74
2023/01/21 04:34:55;;;;;;;87.25;31.77;;;;;;;;;;5072186;28;20044;-75
2023/01/21 04:37:21;;;;;;;93.82;31.15;;;;;;;;;;5073059;28;20086;-75
2023/01/21 04:39:47;;;;;;;81.25;32.25;;;;;;;;;;5075514;28;20040;-75
2023/01/21 04:42:13;;;;;;;88.60;31.38;;;;;;;;;;5056215;28;20045;-74
2023/01/21 04:44:40;;;;;;;88.25;30.95;;;;;;;;;;5091549;28;20059;-75
2023/01/21 04:47:06;;;;;;;81.07;31.35;;;;;;;;;;5076373;28;20494;-75
2023/01/21 04:49:32;;;;;;;83.22;31.15;;;;;;;;;;5085604;28;20056;-75
2023/01/21 04:51:58;;;;;;;80.55;29.40;;;;;;;;;;5079033;28;20063;-74
2023/01/21 04:54:24;;;;;;;78.32;29.85;;;;;;;;;;5088729;28;20059;-75
2023/01/21 04:56:50;;;;;;;80.65;30.23;;;;;;;;;;5083697;28;20047;-75
2023/01/21 04:59:16;;;;;;;83.38;31.45;;;;;;;;;;5091665;28;20096;-75
2023/01/21 05:01:42;;;;;;;77.20;30.23;;;;;;;;;;5095936;28;20036;-77
2023/01/21 05:04:08;;;;;;;77.65;29.45;;;;;;;;;;5079176;28;20402;-79
2023/01/21 05:06:34;;;;;;;83.03;31.92;;;;;;;;;;5086335;28;20146;-77
2023/01/21 05:09:00;;;;;;;78.32;30.70;;;;;;;;;;5092003;28;20045;-76
2023/01/21 05:11:26;;;;;;;81.93;30.52;;;;;;;;;;5086874;28;20052;-77
2023/01/21 05:13:52;;;;;;;87.05;30.10;;;;;;;;;;5075049;28;20074;-75
2023/01/21 05:16:18;;;;;;;78.35;30.27;;;;;;;;;;5066546;28;20080;-75
2023/01/21 05:18:44;;;;;;;81.65;30.98;;;;;;;;;;5088129;28;20094;-75
2023/01/21 05:21:11;;;;;;;87.22;31.25;;;;;;;;;;5079387;28;20048;-75
2023/01/21 05:23:37;;;;;;;80.75;31.35;;;;;;;;;;5087379;28;20051;-75
2023/01/21 05:26:03;;;;;;;94.13;31.30;;;;;;;;;;5081906;28;20499;-75
2023/01/21 05:28:29;;;;;;;86.47;31.73;;;;;;;;;;5060696;28;20406;-75
2023/01/21 05:30:58;;;;;;;85.70;32.92;;;;;;;;;;5088170;28;20047;-75
2023/01/21 05:33:28;;;;;;;85.18;32.90;;;;;;;;;;5090544;28;20071;-75
2023/01/21 05:35:54;;;;;;;88.72;31.13;;;;;;;;;;5071478;28;20512;-75
2023/01/21 05:38:20;;;;;;;84.05;30.58;;;;;;;;;;5077415;28;20426;-75
2023/01/21 05:40:46;;;;;;;83.07;31.45;;;;;;;;;;5083934;28;20065;-74
2023/01/21 05:43:12;;;;;;;93.43;32.33;;;;;;;;;;5085932;28;20036;-75
2023/01/21 05:45:38;;;;;;;83.22;30.60;;;;;;;;;;5084202;28;20456;-75
2023/01/21 05:48:05;;;;;;;83.75;29.90;;;;;;;;;;5083715;28;20067;-75
2023/01/21 05:50:31;;;;;;;78.53;30.65;;;;;;;;;;5079070;28;20047;-75
2023/01/21 05:52:57;;;;;;;74.68;29.15;;;;;;;;;;5079433;28;20041;-75
2023/01/21 05:55:23;;;;;;;70.18;29.40;;;;;;;;;;5081792;28;20032;-75
2023/01/21 05:57:50;;;;;;;90.25;32.40;;;;;;;;;;5081843;28;20051;-75
2023/01/21 06:00:16;;;;;;;76.55;30.10;;;;;;;;;;5090173;28;20398;-75
2023/01/21 06:02:42;;;;;;;80.70;29.02;;;;;;;;;;5085209;28;20410;-75
2023/01/21 06:05:08;;;;;;;78.68;30.42;;;;;;;;;;5080481;28;20040;-75
2023/01/21 06:07:34;;;;;;;80.53;29.58;;;;;;;;;;5080253;28;20399;-75
2023/01/21 06:10:00;;;;;;;78.18;29.40;;;;;;;;;;5088041;28;20040;-75
2023/01/21 06:12:26;;;;;;;78.90;30.17;;;;;;;;;;5076019;28;21451;-75
2023/01/21 06:14:52;;;;;;;76.15;28.85;;;;;;;;;;5092996;28;20048;-75
2023/01/21 06:17:18;;;;;;;77.45;29.38;;;;;;;;;;5088953;28;20126;-75
2023/01/21 06:19:44;;;;;;;85.50;31.15;;;;;;;;;;5082332;28;20461;-75
2023/01/21 06:22:17;;;;;;;79.85;29.92;;;;;;;;;;5092006;28;20067;-75
2023/01/21 06:24:44;;;;;;;75.55;28.35;;;;;;;;;;5082414;28;20056;-75
2023/01/21 06:27:10;;;;;;;75.45;29.48;;;;;;;;;;5085287;28;20051;-75
2023/01/21 06:29:36;;;;;;;69.95;28.48;;;;;;;;;;5057532;28;20487;-75
2023/01/21 06:32:02;;;;;;;79.07;29.85;;;;;;;;;;5059679;28;20390;-75
2023/01/21 06:34:28;;;;;;;78.45;29.88;;;;;;;;;;5087528;28;20044;-75
2023/01/21 06:36:54;;;;;;;83.18;30.58;;;;;;;;;;5078971;28;20063;-75
2023/01/21 06:39:20;;;;;;;78.40;32.20;;;;;;;;;;5055283;28;20048;-75
2023/01/21 06:41:46;;;;;;;77.88;30.52;;;;;;;;;;5073601;28;20171;-75
2023/01/21 06:44:12;;;;;;;72.47;31.15;;;;;;;;;;5082412;28;20044;-75
2023/01/21 06:46:38;;;;;;;82.45;31.48;;;;;;;;;;5091795;28;20048;-75
2023/01/21 06:49:04;;;;;;;76.47;29.48;;;;;;;;;;5078559;28;20097;-75
2023/01/21 06:51:30;;;;;;;76.20;28.90;;;;;;;;;;5082236;28;20521;-75
2023/01/21 06:53:56;;;;;;;79.47;28.38;;;;;;;;;;5055316;28;20052;-75
2023/01/21 06:56:23;;;;;;;71.63;28.50;;;;;;;;;;5074903;28;20048;-75
2023/01/21 06:58:49;;;;;;;69.78;28.88;;;;;;;;;;5076139;28;20044;-74
2023/01/21 07:01:15;;;;;;;65.25;27.63;;;;;;;;;;5078289;28;20044;-75
2023/01/21 07:03:42;;;;;;;67.10;26.67;;;;;;;;;;5086196;28;20443;-75
2023/01/21 07:06:08;;;;;;;72.32;28.40;;;;;;;;;;5080620;28;20052;-75
2023/01/21 07:08:34;;;;;;;71.28;26.98;;;;;;;;;;5084801;28;20040;-75
2023/01/21 07:11:00;;;;;;;73.30;28.52;;;;;;;;;;5085434;28;20101;-75
2023/01/21 07:13:26;;;;;;;72.97;29.67;;;;;;;;;;5090393;28;20040;-75
2023/01/21 07:15:52;;;;;;;73.07;27.45;;;;;;;;;;5073113;28;20040;-75
2023/01/21 07:18:18;;;;;;;72.32;28.70;;;;;;;;;;5087845;28;20047;-74
2023/01/21 07:20:44;;;;;;;72.55;28.70;;;;;;;;;;5076796;28;20048;-75
2023/01/21 07:23:10;;;;;;;67.75;27.45;;;;;;;;;;5078072;28;20119;-75
2023/01/21 07:25:37;;;;;;;65.30;26.80;;;;;;;;;;5076568;28;20044;-75
2023/01/21 07:28:03;;;;;;;68.22;28.10;;;;;;;;;;5083089;28;20123;-75
2023/01/21 07:30:29;;;;;;;67.85;26.85;;;;;;;;;;5087039;28;20490;-75
2023/01/21 07:32:55;;;;;;;74.72;28.13;;;;;;;;;;5083214;28;20436;-75
2023/01/21 07:35:21;;;;;;;77.85;28.50;;;;;;;;;;5088944;28;20044;-75
2023/01/21 07:37:47;;;;;;;70.75;27.63;;;;;;;;;;5079243;28;20048;-75
2023/01/21 07:40:13;;;;;;;72.88;28.05;;;;;;;;;;5077058;28;20043;-75
2023/01/21 07:42:39;;;;;;;71.40;26.95;;;;;;;;;;5087501;28;20115;-75
2023/01/21 07:45:05;;;;;;;77.57;29.10;;;;;;;;;;5074886;28;20051;-75
2023/01/21 07:47:31;;;;;;;72.88;27.95;;;;;;;;;;5074435;28;20040;-75
2023/01/21 07:50:03;;;;;;;69.63;28.25;;;;;;;;;;5062265;28;20048;-75
2023/01/21 07:52:29;;;;;;;70.63;28.35;;;;;;;;;;5078903;28;20129;-75
2023/01/21 07:54:55;;;;;;;68.05;27.58;;;;;;;;;;5065224;28;20036;-75
2023/01/21 07:57:21;;;;;;;67.97;27.55;;;;;;;;;;5081398;28;20051;-75
2023/01/21 07:59:47;;;;;;;91.78;41.38;;;;;;;;;;5080906;28;20048;-75
2023/01/21 08:02:13;;;;;;;83.65;38.28;;;;;;;;;;5082881;28;20470;-75
2023/01/21 08:04:39;;;;;;;92.57;41.60;;;;;;;;;;5077352;28;20033;-75
2023/01/21 08:07:08;;;;;;;76.28;32.30;;;;;;;;;;5086439;28;20044;-75
2023/01/21 08:09:34;;;;;;;79.15;30.30;;;;;;;;;;5080868;28;20412;-75
2023/01/21 08:12:00;;;;;;;73.57;29.15;;;;;;;;;;5072564;28;20048;-75
2023/01/21 08:14:26;;;;;;;74.55;28.55;;;;;;;;;;5083259;28;20040;-75
2023/01/21 08:16:52;;;;;;;69.65;28.05;;;;;;;;;;5087481;28;20055;-75
2023/01/21 08:19:18;;;;;;;69.88;29.10;;;;;;;;;;5084079;28;20098;-75
2023/01/21 08:21:44;;;;;;;76.57;27.58;;;;;;;;;;5093452;28;20040;-75
2023/01/21 08:24:10;;;;;;;77.30;29.63;;;;;;;;;;5078958;28;20047;-76
2023/01/21 08:26:36;;;;;;;68.40;27.38;;;;;;;;;;5092111;28;20048;-75
2023/01/21 08:29:02;;;;;;;71.88;28.30;;;;;;;;;;5075601;28;20109;-76
2023/01/21 08:31:29;;;;;;;71.50;29.40;;;;;;;;;;5075893;28;20044;-76
2023/01/21 08:33:56;;;;;;;79.43;28.83;;;;;;;;;;5075606;28;20151;-74
2023/01/21 08:36:22;;;;;;;70.93;28.80;;;;;;;;;;5075663;28;20415;-74
2023/01/21 08:38:52;;;;;;;80.25;29.45;;;;;;;;;;5083202;28;20052;-73
2023/01/21 08:41:18;;;;;;;81.40;30.17;;;;;;;;;;5071991;28;20114;-74
2023/01/21 08:43:44;;;;;;;84.20;30.75;;;;;;;;;;5084691;28;20076;-75
2023/01/21 08:46:10;;;;;;;77.80;30.67;;;;;;;;;;5088947;28;20056;-74
2023/01/21 08:48:39;;;;;;;79.47;29.67;;;;;;;;;;5079118;28;20048;-74
2023/01/21 08:51:05;;;;;;;77.35;29.02;;;;;;;;;;5077273;28;20056;-75
2023/01/21 08:53:31;;;;;;;76.63;30.25;;;;;;;;;;5093284;28;20048;-74
2023/01/21 08:55:59;;;;;;;78.00;32.88;;;;;;;;;;5094113;28;20055;-76
2023/01/21 08:58:25;;;;;;;84.65;32.08;;;;;;;;;;5095610;28;20131;-75
2023/01/21 09:00:51;;;;;;;75.05;30.48;;;;;;;;;;5074714;28;20048;-74
2023/01/21 09:03:18;;;;;;;82.85;31.80;;;;;;;;;;5085273;28;20397;-74
2023/01/21 09:05:45;;;;;;;80.22;32.03;;;;;;;;;;5089113;28;20052;-74
2023/01/21 09:08:11;;;;;;;73.47;30.23;;;;;;;;;;5092316;28;20459;-74
2023/01/21 09:11:10;;;;;;;77.47;31.60;;;;;;;;;;5085562;28;20052;-74
2023/01/21 09:13:31;;;;;;;73.18;29.08;;;;;;;;;;5085840;28;20056;-75
2023/01/21 09:15:57;;;;;;;70.80;29.75;;;;;;;;;;5082408;28;20070;-77
2023/01/21 09:18:23;;;;;;;73.28;30.20;;;;;;;;;;5084439;28;20391;-78
2023/01/21 09:20:49;;;;;;;70.90;29.55;;;;;;;;;;5069403;28;20572;-75
2023/01/21 09:23:24;;;;;;;79.13;31.20;;;;;;;;;;5083585;28;20048;-75
2023/01/21 09:26:00;;;;;;;76.30;30.38;;;;;;;;;;5093721;28;20101;-75
2023/01/21 09:28:26;;;;;;;73.65;30.95;;;;;;;;;;5093998;28;20051;-75
2023/01/21 09:30:59;;;;;;;76.20;30.52;;;;;;;;;;5092969;28;20048;-75
2023/01/21 09:33:26;;;;;;;68.47;30.33;;;;;;;;;;5094242;28;20048;-74
2023/01/21 09:35:53;;;;;;;73.35;29.98;;;;;;;;;;5076746;28;20529;-74
2023/01/21 09:38:19;;;;;;;70.55;29.58;;;;;;;;;;5094465;28;20044;-74
2023/01/21 09:40:45;;;;;;;74.45;30.02;;;;;;;;;;5092351;28;20077;-73
2023/01/21 09:43:15;;;;;;;68.22;28.60;;;;;;;;;;5088133;28;20040;-77
2023/01/21 09:45:43;;;;;;;68.70;29.20;;;;;;;;;;5087767;28;20403;-74
2023/01/21 09:48:13;;;;;;;66.03;29.20;;;;;;;;;;5089732;28;20043;-76
2023/01/21 09:50:40;;;;;;;63.07;28.80;;;;;;;;;;5069885;28;20093;-74
2023/01/21 09:53:14;;;;;;;66.55;29.98;;;;;;;;;;5060772;28;20095;-74
2023/01/21 09:55:48;;;;;;;65.88;28.67;;;;;;;;;;5084673;28;20044;-74
2023/01/21 09:58:22;;;;;;;61.03;28.23;;;;;;;;;;5084607;28;20075;-74
2023/01/21 10:00:54;;;;;;;67.18;30.67;;;;;;;;;;5089307;28;20047;-74
2023/01/21 10:03:20;;;;;;;64.60;30.42;;;;;;;;;;5089341;28;20040;-75
2023/01/21 10:05:52;;;;;;;69.80;29.92;;;;;;;;;;5085911;28;20048;-74
2023/01/21 10:08:24;;;;;;;70.18;33.13;;;;;;;;;;5078751;28;20051;-75
2023/01/21 10:10:50;;;;;;;68.13;34.72;;;;;;;;;;5077641;28;20044;-74
2023/01/21 10:13:35;;;;;;;63.95;32.42;;;;;;;;;;5076350;28;20056;-75
2023/01/21 10:16:07;;;;;;;66.03;32.33;;;;;;;;;;5073345;28;20430;-75
2023/01/21 10:18:36;;;;;;;65.82;31.05;;;;;;;;;;5080442;28;20052;-74
2023/01/21 10:21:05;;;;;;;61.08;31.00;;;;;;;;;;5082020;28;20037;-77
2023/01/21 10:23:41;;;;;;;58.85;30.05;;;;;;;;;;5077312;28;20040;-74
2023/01/21 10:26:09;;;;;;;61.55;28.88;;;;;;;;;;5081217;28;20075;-73
2023/01/21 10:28:38;;;;;;;60.08;30.90;;;;;;;;;;5085095;28;20474;-73
2023/01/21 10:31:08;;;;;;;61.22;31.55;;;;;;;;;;5082841;28;20616;-75
2023/01/21 10:33:34;;;;;;;55.35;30.00;;;;;;;;;;5078514;28;20048;-78
2023/01/21 10:36:06;;;;;;;57.25;29.85;;;;;;;;;;5081142;28;20120;-75
2023/01/21 10:38:50;;;;;;;54.13;29.45;;;;;;;;;;5081932;28;20464;-75
2023/01/21 10:41:32;;;;;;;57.42;31.02;;;;;;;;;;5084926;28;20052;-76
2023/01/21 10:44:06;;;;;;;53.17;29.40;;;;;;;;;;5059459;28;20040;-76
2023/01/21 10:46:36;;;;;;;54.15;29.48;;;;;;;;;;5075193;28;20045;-76
2023/01/21 10:49:19;;;;;;;51.85;29.98;;;;;;;;;;5083171;28;20397;-77
2023/01/21 10:51:49;;;;;;;49.63;28.52;;;;;;;;;;5077708;28;20701;-76
2023/01/21 10:54:31;;;;;;;51.47;28.05;;;;;;;;;;5075420;28;20039;-76
2023/01/21 10:57:00;;;;;;;48.95;28.20;;;;;;;;;;5091065;28;20044;-75
2023/01/21 10:59:28;;;;;;;53.10;28.67;;;;;;;;;;5089728;28;20508;-75
2023/01/21 11:02:02;;;;;;;50.75;28.67;;;;;;;;;;5087414;28;20090;-74
2023/01/21 11:04:28;;;;;;;47.83;28.48;;;;;;;;;;5086850;28;20044;-75
2023/01/21 11:07:04;;;;;;;47.22;27.55;;;;;;;;;;5083506;28;20059;-75
2023/01/21 11:09:36;;;;;;;47.67;27.58;;;;;;;;;;5078481;28;20489;-75
2023/01/21 11:12:03;;;;;;;45.83;27.40;;;;;;;;;;5084658;28;20044;-75
2023/01/21 11:14:29;;;;;;;49.22;28.65;;;;;;;;;;5090544;28;20051;-77
2023/01/21 11:16:55;;;;;;;45.20;28.08;;;;;;;;;;5086998;28;20040;-75
2023/01/21 11:19:24;;;;;;;45.85;27.88;;;;;;;;;;5086867;28;20044;-74
2023/01/21 11:21:57;;;;;;;46.08;27.38;;;;;;;;;;5087492;28;20509;-74
2023/01/21 11:24:24;;;;;;;49.13;27.55;;;;;;;;;;5077167;28;20075;-74
2023/01/21 11:27:00;;;;;;;47.65;27.30;;;;;;;;;;5089320;28;20044;-74
2023/01/21 11:29:37;;;;;;;44.08;27.02;;;;;;;;;;5081043;28;20059;-75
2023/01/21 11:32:20;;;;;;;43.35;27.45;;;;;;;;;;5082868;28;20125;-74
2023/01/21 11:34:47;;;;;;;44.38;26.98;;;;;;;;;;5082147;28;20052;-75
2023/01/21 11:37:23;;;;;;;42.90;27.40;;;;;;;;;;5086451;28;20048;-75
2023/01/21 11:39:57;;;;;;;38.45;25.00;;;;;;;;;;5089832;28;20060;-74
2023/01/21 11:42:24;;;;;;;41.33;26.45;;;;;;;;;;5090312;28;20048;-75
2023/01/21 11:45:22;;;;;;;44.00;27.40;;;;;;;;;;5080705;28;20101;-74
2023/01/21 11:47:49;;;;;;;42.97;27.05;;;;;;;;;;5074134;28;20044;-74
2023/01/21 11:50:16;;;;;;;43.75;26.35;;;;;;;;;;5078221;28;20394;-74
2023/01/21 11:52:43;;;;;;;38.67;26.27;;;;;;;;;;5090019;28;20055;-75
2023/01/21 11:55:19;;;;;;;42.17;27.55;;;;;;;;;;5075885;28;20047;-75
2023/01/21 11:57:48;;;;;;;42.40;27.10;;;;;;;;;;5079353;28;20521;-75
2023/01/21 12:00:25;;;;;;;44.15;26.63;;;;;;;;;;5091183;28;20147;-76
2023/01/21 12:02:53;;;;;;;40.72;25.95;;;;;;;;;;5054714;28;20063;-74
2023/01/21 12:05:26;;;;;;;39.90;26.00;;;;;;;;;;5054906;28;20099;-75
2023/01/21 12:07:52;;;;;;;39.35;25.40;;;;;;;;;;5055276;28;20483;-74
2023/01/21 12:10:27;;;;;;;40.70;26.10;;;;;;;;;;5064121;28;20041;-75
2023/01/21 12:13:12;;;;;;;39.53;26.60;;;;;;;;;;5053119;28;20053;-75
2023/01/21 12:15:45;;;;;;;38.78;25.42;;;;;;;;;;5055333;28;20045;-75
2023/01/21 12:18:26;;;;;;;36.58;23.55;;;;;;;;;;5052680;28;20056;-74
2023/01/21 12:20:52;;;;;;;42.00;25.10;;;;;;;;;;5064024;28;20064;-74
2023/01/21 12:23:42;;;;;;;41.83;26.92;;;;;;;;;;5056851;28;20067;-74
2023/01/21 12:26:20;;;;;;;43.83;28.55;;;;;;;;;;5047381;28;20403;-75
2023/01/21 12:28:52;;;;;;;43.95;27.65;;;;;;;;;;5055519;28;20056;-75
2023/01/21 12:31:41;;;;;;;39.60;26.90;;;;;;;;;;5064136;28;20490;-75
2023/01/21 12:34:14;;;;;;;40.50;27.27;;;;;;;;;;5068763;28;20055;-75
2023/01/21 12:36:44;;;;;;;39.53;27.00;;;;;;;;;;5062987;28;20049;-74
2023/01/21 12:39:15;;;;;;;37.85;25.48;;;;;;;;;;5052873;28;20045;-75
2023/01/21 12:41:43;;;;;;;41.47;26.27;;;;;;;;;;5051962;28;20107;-75
2023/01/21 12:44:24;;;;;;;36.92;26.10;;;;;;;;;;5051472;28;20049;-76
2023/01/21 12:46:51;;;;;;;37.97;26.33;;;;;;;;;;5051456;28;20460;-74
2023/01/21 12:49:26;;;;;;;36.97;25.05;;;;;;;;;;5059152;28;20055;-76
2023/01/21 12:51:55;;;;;;;40.65;26.58;;;;;;;;;;5061550;28;20052;-75
2023/01/21 12:54:28;;;;;;;39.55;26.33;;;;;;;;;;5043171;28;20048;-75
2023/01/21 12:56:59;;;;;;;39.00;25.67;;;;;;;;;;5071721;28;20040;-75
2023/01/21 12:59:37;;;;;;;36.28;24.40;;;;;;;;;;5053655;28;20119;-75
2023/01/21 13:02:22;;;;;;;38.05;25.02;;;;;;;;;;5049760;28;20045;-75
2023/01/21 13:04:57;;;;;;;33.17;22.52;;;;;;;;;;5081222;28;20094;-75
2023/01/21 13:07:30;;;;;;;30.52;20.52;;;;;;;;;;5074079;28;20120;-75
2023/01/21 13:10:05;;;;;;;29.83;20.27;;;;;;;;;;5078431;28;20066;-74
2023/01/21 13:12:33;;;;;;;29.90;20.88;;;;;;;;;;5075119;28;20052;-75
2023/01/21 13:15:17;;;;;;;27.70;20.38;;;;;;;;;;5083605;28;20075;-75
2023/01/21 13:17:44;;;;;;;27.83;18.75;;;;;;;;;;5095195;28;20070;-75
2023/01/21 13:20:17;;;;;;;24.48;17.65;;;;;;;;;;5082285;28;20098;-75
2023/01/21 13:22:50;;;;;;;25.63;18.02;;;;;;;;;;5078367;28;20390;-75
2023/01/21 13:25:27;;;;;;;22.05;14.88;;;;;;;;;;5095142;28;20052;-75
2023/01/21 13:28:07;;;;;;;21.42;14.07;;;;;;;;;;5073874;28;20444;-74
2023/01/21 13:30:33;;;;;;;22.60;13.45;;;;;;;;;;5089384;28;20040;-75
2023/01/21 13:33:06;;;;;;;16.52;11.23;;;;;;;;;;5087285;28;20049;-75
2023/01/21 13:35:32;;;;;;;17.85;12.50;;;;;;;;;;5076807;28;20509;-75
2023/01/21 13:37:58;;;;;;;18.20;12.40;;;;;;;;;;5095196;28;20052;-75
2023/01/21 13:40:39;;;;;;;17.77;12.13;;;;;;;;;;5087510;28;20045;-75
2023/01/21 13:43:25;;;;;;;16.77;11.38;;;;;;;;;;5076636;28;20049;-75
2023/01/21 13:46:10;;;;;;;18.02;11.55;;;;;;;;;;5074397;28;20052;-75
2023/01/21 13:48:42;;;;;;;16.73;11.90;;;;;;;;;;5094530;28;20052;-75
2023/01/21 13:51:27;;;;;;;17.63;11.98;;;;;;;;;;5094981;28;20052;-74
2023/01/21 13:54:11;;;;;;;13.70;9.60;;;;;;;;;;5093756;28;20134;-75
2023/01/21 13:56:43;;;;;;;16.48;11.43;;;;;;;;;;5093418;28;20044;-74
2023/01/21 13:59:31;;;;;;;15.80;11.77;;;;;;;;;;5082891;28;20044;-74
2023/01/21 14:02:15;;;;;;;15.10;10.85;;;;;;;;;;5088345;28;20052;-74
2023/01/21 14:04:47;;;;;;;16.10;10.35;;;;;;;;;;5074222;28;20139;-74
2023/01/21 14:07:16;;;;;;;17.20;10.50;;;;;;;;;;5083185;28;20089;-74
2023/01/21 14:09:45;;;;;;;15.68;10.82;;;;;;;;;;5076083;28;20051;-73
2023/01/21 14:12:16;;;;;;;15.60;10.40;;;;;;;;;;5084598;28;20044;-74
2023/01/21 14:14:54;;;;;;;13.45;9.68;;;;;;;;;;5090441;28;20032;-74
2023/01/21 14:17:23;;;;;;;15.63;10.05;;;;;;;;;;5083991;28;20053;-74
2023/01/21 14:20:08;;;;;;;13.52;9.60;;;;;;;;;;5081799;28;20471;-75
2023/01/21 14:22:49;;;;;;;13.75;10.20;;;;;;;;;;5080938;28;20054;-76
2023/01/21 14:25:18;;;;;;;15.13;10.67;;;;;;;;;;5093946;28;20059;-75
2023/01/21 14:27:45;;;;;;;15.20;9.90;;;;;;;;;;5073890;28;20306;-76
2023/01/21 14:30:20;;;;;;;13.38;10.02;;;;;;;;;;5093982;28;20051;-74
2023/01/21 14:32:46;;;;;;;14.93;9.77;;;;;;;;;;5086887;28;20562;-75
2023/01/21 14:35:18;;;;;;;12.98;8.98;;;;;;;;;;5080505;28;20036;-75